createdAt,value
2023-09-22T00:00:10.446Z,76.12
2023-09-22T00:01:10.446Z,73.19
2023-09-22T00:02:10.454Z,69.89
2023-09-22T00:03:10.454Z,67.04
2023-09-22T00:04:10.505Z,63.10
2023-09-22T00:05:10.415Z,59.17
2023-09-22T00:06:10.408Z,57.35
2023-09-22T00:07:10.355Z,53.71
2023-09-22T00:08:10.404Z,49.72
2023-09-22T00:09:10.362Z,46.94
2023-09-22T00:10:10.380Z,44.31
2023-09-22T00:11:10.351Z,40.97
2023-09-22T00:12:10.324Z,39.06
2023-09-22T00:13:10.379Z,37.39
2023-09-22T00:14:10.284Z,36.20
2023-09-22T00:15:10.295Z,34.84
2023-09-22T00:16:10.289Z,33.83
2023-09-22T00:17:10.269Z,33.03
2023-09-22T00:18:10.324Z,32.22
2023-09-22T00:19:10.374Z,31.64
2023-09-22T00:20:10.243Z,31.40
2023-09-22T00:21:10.232Z,30.98
2023-09-22T00:22:10.222Z,30.71
2023-09-22T00:23:10.231Z,30.26
2023-09-22T00:24:10.179Z,29.88
2023-09-22T00:25:10.222Z,29.67
2023-09-22T00:26:10.165Z,29.25
2023-09-22T00:27:10.189Z,29.21
2023-09-22T00:28:10.292Z,28.61
2023-09-22T00:29:10.205Z,28.19
2023-09-22T00:30:10.151Z,28.26
2023-09-22T00:31:10.210Z,28.19
2023-09-22T00:32:10.173Z,27.92
2023-09-22T00:33:10.241Z,27.89
2023-09-22T00:34:10.182Z,27.80
2023-09-22T00:35:10.091Z,27.65
2023-09-22T00:36:10.080Z,27.45
2023-09-22T00:37:10.075Z,27.61
2023-09-22T00:38:10.106Z,27.52
2023-09-22T00:39:10.050Z,27.96
2023-09-22T00:40:10.102Z,28.44
2023-09-22T00:41:10.022Z,28.59
2023-09-22T00:42:10.113Z,28.95
2023-09-22T00:43:10.026Z,29.31
2023-09-22T00:44:10.049Z,30.00
2023-09-22T00:45:10.055Z,30.80
2023-09-22T00:46:10.002Z,31.64
2023-09-22T00:47:09.956Z,33.29
2023-09-22T00:48:09.941Z,37.97
2023-09-22T00:49:09.924Z,45.36
2023-09-22T00:50:09.992Z,50.87
2023-09-22T00:51:09.916Z,55.75
2023-09-22T00:52:09.906Z,62.49
2023-09-22T00:53:09.919Z,66.35
2023-09-22T00:54:09.867Z,65.06
2023-09-22T00:55:09.881Z,62.39
2023-09-22T00:56:09.942Z,58.11
2023-09-22T00:57:09.860Z,56.08
2023-09-22T00:58:09.843Z,54.80
2023-09-22T00:59:09.844Z,54.66
2023-09-22T01:00:09.858Z,55.71
2023-09-22T01:01:09.801Z,62.12
2023-09-22T01:02:09.924Z,77.89
2023-09-22T01:03:09.928Z,94.31
2023-09-22T01:04:09.901Z,110.71
2023-09-22T01:05:09.934Z,110.49
2023-09-22T01:06:09.746Z,112.49
2023-09-22T01:07:09.762Z,116.81
2023-09-22T01:08:09.769Z,121.73
2023-09-22T01:09:09.737Z,123.71
2023-09-22T01:10:09.708Z,129.74
2023-09-22T01:11:09.702Z,137.86
2023-09-22T01:12:09.953Z,141.59
2023-09-22T01:13:09.691Z,142.55
2023-09-22T01:14:09.680Z,142.55
2023-09-22T01:15:09.680Z,143.04
2023-09-22T01:16:09.701Z,141.95
2023-09-22T01:17:09.653Z,141.59
2023-09-22T01:18:09.754Z,139.00
2023-09-22T01:19:09.616Z,139.24
2023-09-22T01:20:09.634Z,139.00
2023-09-22T01:21:09.611Z,141.35
2023-09-22T01:22:09.594Z,147.97
2023-09-22T01:23:09.563Z,150.63
2023-09-22T01:24:09.604Z,156.25
2023-09-22T01:25:09.572Z,165.19
2023-09-22T01:26:09.558Z,174.12
2023-09-22T01:27:09.545Z,180.11
2023-09-22T01:28:09.522Z,195.04
2023-09-22T01:29:09.526Z,209.96
2023-09-22T01:30:09.554Z,226.57
2023-09-22T01:31:09.504Z,246.59
2023-09-22T01:32:09.452Z,269.38
2023-09-22T01:33:09.500Z,290.53
2023-09-22T01:34:09.714Z,296.01
2023-09-22T01:35:09.543Z,306.20
2023-09-22T01:36:09.447Z,319.88
2023-09-22T01:37:09.435Z,330.14
2023-09-22T01:38:09.416Z,340.37
2023-09-22T01:39:09.467Z,345.01
2023-09-22T01:40:09.433Z,352.77
2023-09-22T01:41:09.492Z,357.75
2023-09-22T01:42:09.397Z,359.31
2023-09-22T01:43:09.372Z,364.48
2023-09-22T01:44:09.364Z,362.47
2023-09-22T01:45:09.331Z,362.87
2023-09-22T01:46:09.384Z,357.36
2023-09-22T01:47:09.382Z,364.48
2023-09-22T01:48:09.526Z,365.29
2023-09-22T01:49:09.293Z,365.69
2023-09-22T01:50:09.295Z,364.48
2023-09-22T01:51:09.284Z,360.89
2023-09-22T01:52:09.271Z,367.33
2023-09-22T01:53:09.413Z,370.63
2023-09-22T01:54:09.276Z,379.01
2023-09-22T01:55:09.229Z,384.01
2023-09-22T01:56:09.241Z,390.73
2023-09-22T01:57:09.225Z,396.52
2023-09-22T01:58:09.212Z,402.48
2023-09-22T01:59:09.238Z,404.43
2023-09-22T02:00:09.198Z,414.19
2023-09-22T02:01:09.201Z,416.51
2023-09-22T02:02:09.169Z,421.76
2023-09-22T02:03:09.194Z,426.87
2023-09-22T02:04:09.389Z,432.10
2023-09-22T02:05:09.261Z,436.90
2023-09-22T02:06:09.120Z,439.48
2023-09-22T02:07:09.120Z,445.03
2023-09-22T02:08:09.097Z,442.97
2023-09-22T02:09:09.137Z,448.01
2023-09-22T02:10:09.085Z,448.31
2023-09-22T02:11:09.084Z,455.33
2023-09-22T02:12:09.075Z,456.88
2023-09-22T02:13:09.058Z,458.13
2023-09-22T02:14:09.128Z,456.88
2023-09-22T02:15:09.070Z,458.76
2023-09-22T02:16:09.153Z,464.17
2023-09-22T02:17:09.013Z,474.70
2023-09-22T02:18:09.058Z,474.37
2023-09-22T02:19:09.056Z,479.46
2023-09-22T02:20:09.006Z,477.75
2023-09-22T02:21:08.963Z,487.49
2023-09-22T02:22:08.939Z,497.64
2023-09-22T02:23:08.967Z,507.45
2023-09-22T02:24:09.329Z,511.33
2023-09-22T02:25:08.956Z,512.90
2023-09-22T02:26:09.032Z,517.26
2023-09-22T02:27:08.901Z,527.03
2023-09-22T02:28:08.891Z,537.18
2023-09-22T02:29:08.915Z,541.97
2023-09-22T02:30:08.929Z,535.04
2023-09-22T02:31:08.962Z,533.33
2023-09-22T02:32:08.834Z,541.53
2023-09-22T02:33:08.944Z,547.73
2023-09-22T02:34:08.857Z,564.84
2023-09-22T02:35:08.786Z,585.59
2023-09-22T02:36:08.862Z,579.01
2023-09-22T02:37:08.796Z,588.68
2023-09-22T02:38:08.770Z,609.04
2023-09-22T02:39:08.772Z,599.22
2023-09-22T02:40:08.789Z,580.51
2023-09-22T02:41:08.801Z,572.57
2023-09-22T02:42:08.729Z,559.17
2023-09-22T02:43:08.705Z,546.39
2023-09-22T02:44:08.727Z,546.39
2023-09-22T02:45:08.701Z,551.34
2023-09-22T02:46:08.820Z,561.99
2023-09-22T02:47:08.953Z,576.51
2023-09-22T02:48:08.733Z,586.62
2023-09-22T02:49:08.673Z,578.51
2023-09-22T02:50:08.642Z,582.03
2023-09-22T02:51:08.628Z,591.80
2023-09-22T02:52:10.989Z,598.68
2023-09-22T02:53:08.674Z,616.33
2023-09-22T02:54:08.632Z,617.46
2023-09-22T02:55:08.594Z,611.82
2023-09-22T02:56:08.598Z,599.22
2023-09-22T02:57:08.580Z,592.85
2023-09-22T02:58:08.602Z,594.43
2023-09-22T02:59:08.557Z,586.62
2023-09-22T03:00:08.530Z,585.08
2023-09-22T03:01:08.591Z,585.59
2023-09-22T03:02:08.580Z,584.57
2023-09-22T03:03:08.689Z,584.57
2023-09-22T03:04:08.577Z,580.51
2023-09-22T03:05:08.495Z,566.75
2023-09-22T03:06:08.477Z,546.84
2023-09-22T03:07:08.476Z,537.61
2023-09-22T03:08:08.451Z,538.48
2023-09-22T03:09:09.036Z,543.73
2023-09-22T03:10:08.451Z,544.17
2023-09-22T03:11:08.436Z,543.29
2023-09-22T03:12:08.405Z,543.73
2023-09-22T03:13:08.373Z,556.85
2023-09-22T03:14:08.401Z,556.85
2023-09-22T03:15:08.445Z,564.84
2023-09-22T03:16:08.391Z,572.08
2023-09-22T03:17:08.357Z,570.61
2023-09-22T03:18:08.358Z,572.08
2023-09-22T03:19:08.399Z,562.93
2023-09-22T03:20:08.342Z,556.85
2023-09-22T03:21:08.367Z,558.24
2023-09-22T03:22:08.298Z,566.75
2023-09-22T03:23:08.302Z,560.11
2023-09-22T03:24:08.289Z,566.75
2023-09-22T03:25:08.310Z,558.24
2023-09-22T03:26:08.292Z,545.95
2023-09-22T03:27:08.281Z,526.62
2023-09-22T03:28:08.253Z,528.28
2023-09-22T03:29:08.241Z,531.64
2023-09-22T03:30:08.215Z,545.50
2023-09-22T03:31:08.332Z,540.65
2023-09-22T03:32:08.196Z,546.84
2023-09-22T03:33:08.249Z,554.08
2023-09-22T03:34:08.205Z,560.11
2023-09-22T03:35:08.192Z,563.88
2023-09-22T03:36:08.530Z,552.71
2023-09-22T03:37:08.172Z,545.06
2023-09-22T03:38:08.149Z,531.21
2023-09-22T03:39:08.137Z,527.86
2023-09-22T03:40:08.130Z,523.73
2023-09-22T03:41:08.096Z,526.20
2023-09-22T03:42:08.135Z,534.18
2023-09-22T03:43:08.118Z,533.76
2023-09-22T03:44:08.084Z,532.48
2023-09-22T03:45:08.077Z,552.25
2023-09-22T03:46:08.059Z,549.08
2023-09-22T03:47:08.026Z,546.39
2023-09-22T03:48:08.105Z,543.73
2023-09-22T03:49:08.103Z,544.61
2023-09-22T03:50:08.031Z,549.08
2023-09-22T03:51:08.003Z,557.78
2023-09-22T03:52:07.996Z,560.11
2023-09-22T03:53:08.525Z,559.64
2023-09-22T03:54:07.966Z,559.17
2023-09-22T03:55:07.959Z,551.80
2023-09-22T03:56:07.945Z,550.44
2023-09-22T03:57:08.040Z,546.84
2023-09-22T03:58:07.981Z,533.76
2023-09-22T03:59:07.938Z,520.88
2023-09-22T04:00:07.889Z,510.55
2023-09-22T04:01:08.002Z,487.49
2023-09-22T04:02:08.009Z,484.67
2023-09-22T04:03:08.065Z,487.14
2023-09-22T04:04:07.913Z,488.92
2023-09-22T04:05:07.849Z,491.43
2023-09-22T04:06:07.819Z,486.43
2023-09-22T04:07:07.811Z,483.97
2023-09-22T04:08:07.854Z,490.71
2023-09-22T04:09:07.800Z,485.73
2023-09-22T04:10:07.849Z,504.77
2023-09-22T04:11:07.751Z,492.15
2023-09-22T04:12:07.775Z,487.49
2023-09-22T04:13:07.806Z,490.71
2023-09-22T04:14:07.731Z,500.62
2023-09-22T04:15:07.764Z,488.21
2023-09-22T04:16:07.763Z,491.07
2023-09-22T04:17:07.817Z,489.99
2023-09-22T04:18:07.761Z,483.97
2023-09-22T04:19:07.775Z,496.90
2023-09-22T04:20:07.686Z,493.97
2023-09-22T04:21:07.668Z,491.43
2023-09-22T04:22:07.653Z,487.85
2023-09-22T04:23:07.644Z,494.33
2023-09-22T04:24:07.676Z,492.15
2023-09-22T04:25:07.610Z,504.01
2023-09-22T04:26:07.620Z,516.06
2023-09-22T04:27:07.599Z,509.77
2023-09-22T04:28:07.632Z,514.47
2023-09-22T04:29:07.603Z,507.07
2023-09-22T04:30:07.618Z,496.54
2023-09-22T04:31:07.613Z,496.17
2023-09-22T04:32:07.558Z,497.27
2023-09-22T04:33:07.702Z,498.38
2023-09-22T04:34:07.578Z,511.33
2023-09-22T04:35:07.500Z,514.47
2023-09-22T04:36:07.530Z,508.22
2023-09-22T04:37:07.491Z,499.50
2023-09-22T04:38:07.476Z,504.77
2023-09-22T04:39:07.470Z,504.39
2023-09-22T04:40:07.435Z,502.88
2023-09-22T04:41:07.502Z,495.80
2023-09-22T04:42:07.450Z,489.99
2023-09-22T04:43:07.443Z,482.92
2023-09-22T04:44:07.426Z,481.19
2023-09-22T04:45:07.403Z,475.71
2023-09-22T04:46:07.485Z,471.03
2023-09-22T04:47:07.514Z,467.08
2023-09-22T04:48:07.456Z,464.17
2023-09-22T04:49:07.373Z,458.45
2023-09-22T04:50:07.337Z,447.11
2023-09-22T04:51:07.331Z,439.19
2023-09-22T04:52:07.407Z,440.35
2023-09-22T04:53:07.379Z,442.39
2023-09-22T04:54:07.299Z,436.90
2023-09-22T04:55:07.332Z,431.55
2023-09-22T04:56:07.383Z,422.02
2023-09-22T04:57:07.291Z,426.05
2023-09-22T04:58:07.366Z,432.38
2023-09-22T04:59:07.291Z,429.61
2023-09-22T05:00:07.319Z,422.56
2023-09-22T05:01:07.303Z,417.03
2023-09-22T05:02:07.247Z,415.22
2023-09-22T05:03:07.585Z,403.94
2023-09-22T05:04:07.287Z,394.42
2023-09-22T05:05:07.191Z,379.22
2023-09-22T05:06:07.197Z,372.73
2023-09-22T05:07:07.199Z,362.47
2023-09-22T05:08:07.159Z,356.59
2023-09-22T05:09:07.189Z,355.43
2023-09-22T05:10:07.155Z,347.56
2023-09-22T05:11:07.131Z,341.08
2023-09-22T05:12:07.115Z,331.80
2023-09-22T05:13:07.158Z,322.07
2023-09-22T05:14:07.132Z,309.07
2023-09-22T05:15:07.118Z,300.61
2023-09-22T05:16:07.190Z,301.71
2023-09-22T05:17:07.065Z,300.06
2023-09-22T05:18:07.105Z,293.38
2023-09-22T05:19:07.087Z,295.75
2023-09-22T05:20:07.059Z,283.53
2023-09-22T05:21:07.070Z,276.39
2023-09-22T05:22:07.088Z,272.50
2023-09-22T05:23:06.999Z,272.73
2023-09-22T05:24:06.995Z,276.85
2023-09-22T05:25:06.998Z,278.26
2023-09-22T05:26:06.969Z,283.28
2023-09-22T05:27:07.031Z,276.16
2023-09-22T05:28:07.015Z,278.73
2023-09-22T05:29:06.925Z,284.51
2023-09-22T05:30:06.939Z,277.55
2023-09-22T05:31:08.041Z,268.06
2023-09-22T05:32:06.898Z,252.45
2023-09-22T05:33:06.982Z,235.65
2023-09-22T05:34:06.945Z,227.20
2023-09-22T05:35:06.893Z,225.02
2023-09-22T05:36:06.858Z,220.21
2023-09-22T05:37:06.885Z,221.99
2023-09-22T05:38:06.834Z,229.73
2023-09-22T05:39:06.875Z,233.98
2023-09-22T05:40:06.913Z,240.12
2023-09-22T05:41:06.818Z,247.14
2023-09-22T05:42:06.796Z,246.22
2023-09-22T05:43:06.843Z,249.96
2023-09-22T05:44:06.786Z,253.42
2023-09-22T05:45:07.046Z,259.82
2023-09-22T05:46:06.814Z,267.63
2023-09-22T05:47:06.752Z,272.73
2023-09-22T05:48:06.777Z,281.11
2023-09-22T05:49:06.763Z,288.75
2023-09-22T05:50:06.717Z,289.51
2023-09-22T05:51:07.037Z,286.49
2023-09-22T05:52:06.723Z,285.74
2023-09-22T05:53:06.686Z,286.49
2023-09-22T05:54:06.668Z,290.79
2023-09-22T05:55:06.697Z,285.00
2023-09-22T05:56:06.647Z,278.73
2023-09-22T05:57:07.067Z,274.77
2023-09-22T05:58:06.641Z,275.00
2023-09-22T05:59:06.619Z,273.63
2023-09-22T06:00:06.592Z,274.77
2023-09-22T06:01:06.687Z,273.63
2023-09-22T06:02:06.579Z,259.41
2023-09-22T06:03:06.628Z,262.09
2023-09-22T06:04:06.694Z,260.23
2023-09-22T06:05:06.539Z,263.14
2023-09-22T06:06:06.529Z,257.98
2023-09-22T06:07:06.596Z,262.09
2023-09-22T06:08:06.509Z,266.76
2023-09-22T06:09:06.487Z,270.26
2023-09-22T06:10:06.548Z,285.74
2023-09-22T06:11:06.498Z,286.98
2023-09-22T06:12:06.487Z,297.35
2023-09-22T06:13:06.514Z,300.61
2023-09-22T06:14:06.458Z,300.33
2023-09-22T06:15:06.409Z,315.58
2023-09-22T06:16:06.452Z,319.57
2023-09-22T06:17:06.411Z,321.75
2023-09-22T06:18:06.504Z,323.65
2023-09-22T06:19:06.399Z,337.58
2023-09-22T06:20:06.370Z,351.64
2023-09-22T06:21:06.367Z,360.10
2023-09-22T06:22:06.401Z,368.56
2023-09-22T06:23:06.353Z,373.15
2023-09-22T06:24:06.361Z,364.88
2023-09-22T06:25:06.367Z,349.40
2023-09-22T06:26:06.393Z,356.97
2023-09-22T06:27:06.306Z,374.00
2023-09-22T06:28:06.326Z,368.15
2023-09-22T06:29:06.280Z,343.93
2023-09-22T06:30:06.338Z,334.49
2023-09-22T06:31:06.286Z,323.33
2023-09-22T06:32:06.265Z,293.11
2023-09-22T06:33:06.292Z,259.00
2023-09-22T06:34:06.337Z,231.67
2023-09-22T06:35:06.253Z,217.02
2023-09-22T06:36:06.277Z,203.60
2023-09-22T06:37:06.310Z,191.86
2023-09-22T06:38:06.218Z,184.88
2023-09-22T06:39:06.231Z,185.49
2023-09-22T06:40:06.218Z,185.49
2023-09-22T06:41:06.151Z,190.09
2023-09-22T06:42:06.202Z,188.67
2023-09-22T06:43:20.556Z,184.67
2023-09-22T06:44:06.149Z,175.39
2023-09-22T06:45:06.122Z,164.70
2023-09-22T06:46:06.403Z,163.41
2023-09-22T06:47:06.213Z,156.10
2023-09-22T06:48:06.092Z,152.41
2023-09-22T06:49:06.107Z,150.76
2023-09-22T06:50:06.075Z,146.16
2023-09-22T06:51:06.049Z,145.02
2023-09-22T06:52:06.110Z,140.28
2023-09-22T06:53:06.061Z,134.75
2023-09-22T06:54:06.029Z,146.80
2023-09-22T06:55:06.078Z,157.57
2023-09-22T06:56:06.014Z,169.71
2023-09-22T06:57:06.004Z,182.66
2023-09-22T06:58:06.018Z,188.46
2023-09-22T06:59:06.585Z,184.88
2023-09-22T07:00:05.946Z,179.53
2023-09-22T07:01:06.046Z,175.03
2023-09-22T07:02:05.977Z,172.15
2023-09-22T07:03:05.987Z,187.70
2023-09-22T07:04:06.037Z,216.87
2023-09-22T07:05:05.926Z,227.35
2023-09-22T07:06:05.906Z,223.65
2023-09-22T07:07:05.934Z,225.02
2023-09-22T07:08:05.881Z,233.15
2023-09-22T07:09:05.869Z,237.69
2023-09-22T07:10:05.931Z,244.39
2023-09-22T07:11:05.831Z,258.19
2023-09-22T07:12:05.839Z,258.19
2023-09-22T07:13:05.856Z,255.78
2023-09-22T07:14:05.814Z,264.19
2023-09-22T07:15:05.844Z,280.15
2023-09-22T07:16:05.878Z,301.16
2023-09-22T07:17:05.846Z,289.76
2023-09-22T07:18:05.832Z,287.99
2023-09-22T07:19:05.889Z,295.48
2023-09-22T07:20:05.762Z,299.24
2023-09-22T07:21:06.079Z,314.98
2023-09-22T07:22:05.755Z,330.80
2023-09-22T07:23:05.735Z,339.67
2023-09-22T07:24:05.708Z,344.29
2023-09-22T07:25:05.780Z,337.23
2023-09-22T07:26:05.708Z,328.82
2023-09-22T07:27:05.712Z,327.18
2023-09-22T07:28:05.685Z,337.93
2023-09-22T07:29:05.653Z,318.95
2023-09-22T07:30:05.653Z,302.26
2023-09-22T07:31:05.726Z,289.51
2023-09-22T07:32:05.654Z,297.35
2023-09-22T07:33:06.064Z,330.14
2023-09-22T07:34:05.923Z,343.21
2023-09-22T07:35:05.610Z,335.18
2023-09-22T07:36:05.594Z,333.82
2023-09-22T07:37:18.916Z,352.01
2023-09-22T07:38:05.574Z,367.74
2023-09-22T07:39:05.596Z,370.22
2023-09-22T07:40:05.614Z,377.00
2023-09-22T07:41:05.559Z,371.47
2023-09-22T07:42:05.523Z,360.49
2023-09-22T07:43:05.560Z,351.26
2023-09-22T07:44:05.562Z,376.14
2023-09-22T07:45:05.535Z,397.94
2023-09-22T07:46:05.822Z,424.16
2023-09-22T07:47:05.485Z,431.27
2023-09-22T07:48:05.472Z,435.76
2023-09-22T07:49:05.486Z,428.23
2023-09-22T07:50:05.477Z,406.15
2023-09-22T07:51:05.462Z,396.52
2023-09-22T07:52:05.452Z,402.97
2023-09-22T07:53:05.411Z,393.26
2023-09-22T07:54:05.371Z,376.14
2023-09-22T07:55:05.475Z,352.39
2023-09-22T07:56:05.388Z,393.72
2023-09-22T07:57:05.376Z,393.95
2023-09-22T07:58:05.372Z,384.67
2023-09-22T07:59:13.637Z,389.37
2023-09-22T08:00:05.389Z,390.73
2023-09-22T08:01:05.409Z,382.69
2023-09-22T08:02:05.315Z,374.42
2023-09-22T08:03:05.388Z,370.22
2023-09-22T08:04:05.365Z,361.68
2023-09-22T08:05:05.290Z,370.22
2023-09-22T08:06:05.312Z,393.03
2023-09-22T08:07:05.283Z,398.17
2023-09-22T08:08:05.244Z,415.48
2023-09-22T08:09:05.234Z,440.64
2023-09-22T08:10:05.367Z,442.39
2023-09-22T08:11:05.307Z,438.04
2023-09-22T08:12:05.222Z,428.51
2023-09-22T08:13:05.214Z,415.99
2023-09-22T08:14:05.181Z,399.60
2023-09-22T08:15:05.174Z,369.39
2023-09-22T08:16:05.294Z,339.32
2023-09-22T08:17:05.620Z,320.50
2023-09-22T08:18:05.188Z,307.63
2023-09-22T08:19:05.176Z,297.62
2023-09-22T08:20:05.133Z,315.58
2023-09-22T08:21:05.120Z,345.37
2023-09-22T08:22:05.162Z,343.57
2023-09-22T08:23:05.212Z,337.23
2023-09-22T08:24:05.099Z,340.02
2023-09-22T08:25:05.111Z,331.47
2023-09-22T08:26:05.055Z,347.56
2023-09-22T08:27:05.064Z,351.26
2023-09-22T08:28:05.045Z,351.26
2023-09-22T08:29:05.060Z,342.85
2023-09-22T08:30:05.025Z,329.48
2023-09-22T08:31:05.076Z,337.58
2023-09-22T08:32:05.662Z,341.79
2023-09-22T08:33:05.014Z,349.40
2023-09-22T08:34:05.067Z,345.73
2023-09-22T08:35:04.967Z,341.08
2023-09-22T08:36:04.986Z,335.86
2023-09-22T08:37:04.997Z,339.32
2023-09-22T08:38:04.962Z,337.58
2023-09-22T08:39:04.921Z,340.37
2023-09-22T08:40:05.002Z,328.49
2023-09-22T08:41:04.964Z,313.78
2023-09-22T08:42:04.895Z,300.61
2023-09-22T08:43:04.952Z,291.82
2023-09-22T08:44:04.901Z,291.82
2023-09-22T08:45:04.870Z,287.99
2023-09-22T08:46:04.953Z,281.11
2023-09-22T08:47:04.888Z,287.49
2023-09-22T08:48:04.961Z,292.59
2023-09-22T08:49:04.911Z,295.48
2023-09-22T08:50:04.815Z,290.53
2023-09-22T08:51:04.852Z,289.25
2023-09-22T08:52:04.846Z,297.89
2023-09-22T08:53:04.789Z,292.59
2023-09-22T08:54:04.782Z,298.43
2023-09-22T08:55:04.826Z,303.10
2023-09-22T08:56:04.783Z,302.82
2023-09-22T08:57:04.811Z,310.23
2023-09-22T08:58:04.837Z,320.19
2023-09-22T09:00:15.009Z,157.13
2023-09-22T09:01:16.025Z,218.75
2023-09-22T09:02:16.104Z,255.58
2023-09-22T09:03:16.076Z,270.49
2023-09-22T09:04:15.958Z,280.15
2023-09-22T09:05:18.598Z,293.90
2023-09-22T09:06:15.932Z,294.42
2023-09-22T09:07:16.066Z,295.22
2023-09-22T09:08:16.418Z,299.51
2023-09-22T09:09:15.917Z,294.69
2023-09-22T09:10:15.898Z,292.85
2023-09-22T09:11:15.868Z,293.38
2023-09-22T09:12:15.851Z,294.16
2023-09-22T09:13:15.941Z,307.63
2023-09-22T09:14:15.836Z,313.78
2023-09-22T09:15:15.827Z,318.64
2023-09-22T09:16:15.817Z,319.57
2023-09-22T09:17:15.815Z,314.98
2023-09-22T09:18:15.784Z,313.78
2023-09-22T09:19:15.836Z,315.89
2023-09-22T09:20:15.757Z,319.26
2023-09-22T09:21:15.761Z,316.19
2023-09-22T09:22:15.745Z,317.72
2023-09-22T09:23:15.726Z,317.10
2023-09-22T09:24:15.712Z,313.78
2023-09-22T09:25:15.856Z,310.53
2023-09-22T09:26:15.700Z,310.82
2023-09-22T09:27:15.699Z,307.34
2023-09-22T09:28:15.706Z,305.63
2023-09-22T09:29:15.655Z,300.88
2023-09-22T09:30:15.654Z,300.88
2023-09-22T09:31:15.776Z,305.06
2023-09-22T09:32:15.612Z,307.91
2023-09-22T09:33:15.618Z,312.59
2023-09-22T09:34:15.993Z,306.48
2023-09-22T09:35:16.174Z,303.10
2023-09-22T09:36:15.608Z,296.81
2023-09-22T09:37:15.660Z,284.02
2023-09-22T09:38:15.557Z,276.62
2023-09-22T09:39:15.557Z,267.41
2023-09-22T09:40:15.576Z,261.67
2023-09-22T09:41:15.589Z,260.23
2023-09-22T09:42:15.519Z,267.41
2023-09-22T09:43:15.533Z,265.90
2023-09-22T09:44:16.230Z,254.79
2023-09-22T09:45:15.497Z,261.26
2023-09-22T09:46:15.551Z,268.50
2023-09-22T09:47:15.465Z,260.64
2023-09-22T09:48:15.435Z,247.33
2023-09-22T09:49:15.573Z,253.03
2023-09-22T09:50:15.453Z,244.57
2023-09-22T09:51:15.920Z,239.77
2023-09-22T09:52:15.478Z,244.03
2023-09-22T09:53:15.426Z,249.39
2023-09-22T09:54:15.415Z,249.96
2023-09-22T09:55:15.451Z,242.95
2023-09-22T09:56:15.352Z,241.52
2023-09-22T09:57:15.396Z,244.94
2023-09-22T09:58:15.365Z,247.89
2023-09-22T09:59:15.350Z,242.95
2023-09-22T10:00:15.340Z,239.94
2023-09-22T10:01:15.462Z,244.76
2023-09-22T10:02:15.442Z,239.59
2023-09-22T10:03:15.404Z,240.29
2023-09-22T10:04:15.345Z,245.12
2023-09-22T10:05:15.263Z,252.06
2023-09-22T10:06:15.248Z,252.84
2023-09-22T10:07:15.253Z,262.93
2023-09-22T10:08:15.287Z,271.38
2023-09-22T10:09:15.228Z,280.63
2023-09-22T10:10:15.340Z,275.92
2023-09-22T10:11:15.205Z,275.23
2023-09-22T10:12:15.206Z,273.86
2023-09-22T10:13:15.230Z,268.72
2023-09-22T10:14:16.396Z,267.41
2023-09-22T10:15:15.163Z,264.19
2023-09-22T10:16:15.233Z,260.64
2023-09-22T10:17:15.143Z,263.56
2023-09-22T10:18:15.129Z,274.09
2023-09-22T10:19:15.175Z,271.83
2023-09-22T10:20:15.160Z,269.38
2023-09-22T10:21:15.105Z,264.62
2023-09-22T10:22:15.138Z,269.82
2023-09-22T10:23:15.110Z,281.59
2023-09-22T10:24:15.074Z,280.63
2023-09-22T10:25:15.453Z,281.11
2023-09-22T10:26:15.414Z,285.49
2023-09-22T10:27:15.281Z,278.26
2023-09-22T10:28:15.069Z,292.08
2023-09-22T10:29:15.015Z,301.43
2023-09-22T10:30:15.022Z,307.34
2023-09-22T10:31:15.061Z,304.78
2023-09-22T10:32:15.028Z,305.34
2023-09-22T10:33:14.983Z,304.50
2023-09-22T10:34:14.978Z,307.63
2023-09-22T10:35:14.940Z,303.38
2023-09-22T10:36:14.944Z,306.77
2023-09-22T10:37:14.946Z,315.89
2023-09-22T10:38:14.978Z,320.81
2023-09-22T10:39:14.924Z,312.29
2023-09-22T10:40:15.022Z,307.34
2023-09-22T10:41:14.879Z,321.44
2023-09-22T10:42:14.898Z,326.86
2023-09-22T10:43:14.990Z,338.27
2023-09-22T10:44:14.855Z,339.67
2023-09-22T10:45:14.863Z,337.58
2023-09-22T10:46:14.938Z,336.55
2023-09-22T10:47:14.834Z,330.80
2023-09-22T10:48:14.865Z,330.47
2023-09-22T10:49:14.843Z,332.47
2023-09-22T10:50:14.803Z,331.13
2023-09-22T10:51:14.825Z,337.58
2023-09-22T10:52:14.774Z,340.72
2023-09-22T10:53:14.792Z,343.93
2023-09-22T10:54:15.341Z,346.10
2023-09-22T10:55:14.776Z,341.08
2023-09-22T10:56:14.718Z,335.52
2023-09-22T10:57:14.733Z,330.80
2023-09-22T10:58:15.473Z,330.80
2023-09-22T10:59:14.713Z,324.61
2023-09-22T11:00:14.698Z,318.64
2023-09-22T11:01:14.768Z,315.58
2023-09-22T11:02:14.776Z,318.02
2023-09-22T11:03:14.671Z,325.25
2023-09-22T11:04:14.763Z,332.47
2023-09-22T11:05:14.836Z,335.52
2023-09-22T11:06:14.716Z,333.82
2023-09-22T11:07:14.693Z,324.61
2023-09-22T11:08:14.844Z,317.41
2023-09-22T11:09:14.631Z,311.70
2023-09-22T11:10:14.604Z,315.58
2023-09-22T11:11:14.564Z,317.41
2023-09-22T11:12:14.568Z,316.80
2023-09-22T11:13:14.648Z,323.01
2023-09-22T11:14:14.592Z,318.02
2023-09-22T11:15:14.537Z,310.23
2023-09-22T11:16:14.629Z,303.65
2023-09-22T11:17:14.607Z,321.44
2023-09-22T11:18:16.190Z,337.58
2023-09-22T11:19:14.985Z,331.13
2023-09-22T11:20:14.493Z,325.89
2023-09-22T11:21:14.461Z,323.97
2023-09-22T11:22:14.503Z,325.25
2023-09-22T11:23:14.458Z,321.12
2023-09-22T11:24:14.464Z,314.38
2023-09-22T11:25:14.457Z,307.34
2023-09-22T11:26:14.441Z,303.10
2023-09-22T11:27:14.418Z,305.06
2023-09-22T11:28:14.450Z,311.11
2023-09-22T11:29:14.467Z,314.08
2023-09-22T11:30:14.373Z,323.01
2023-09-22T11:31:14.465Z,322.07
2023-09-22T11:32:14.438Z,324.29
2023-09-22T11:33:14.355Z,335.52
2023-09-22T11:34:14.393Z,343.57
2023-09-22T11:35:25.980Z,344.65
2023-09-22T11:36:14.326Z,346.10
2023-09-22T11:37:14.318Z,351.26
2023-09-22T11:38:14.270Z,372.73
2023-09-22T11:39:14.260Z,387.79
2023-09-22T11:40:14.284Z,384.01
2023-09-22T11:41:14.302Z,380.95
2023-09-22T11:42:14.228Z,384.45
2023-09-22T11:43:14.254Z,391.88
2023-09-22T11:44:14.262Z,388.92
2023-09-22T11:45:14.201Z,394.65
2023-09-22T11:46:14.331Z,391.19
2023-09-22T11:47:14.241Z,392.11
2023-09-22T11:48:14.163Z,384.45
2023-09-22T11:49:14.173Z,374.42
2023-09-22T11:50:14.148Z,374.00
2023-09-22T11:51:15.594Z,382.69
2023-09-22T11:52:14.171Z,386.67
2023-09-22T11:53:14.111Z,389.37
2023-09-22T11:54:16.251Z,417.29
2023-09-22T11:55:14.183Z,423.63
2023-09-22T11:56:14.081Z,426.05
2023-09-22T11:57:14.500Z,420.70
2023-09-22T11:58:14.138Z,405.65
2023-09-22T11:59:14.047Z,388.92
2023-09-22T12:00:14.034Z,377.00
2023-09-22T12:01:14.128Z,360.89
2023-09-22T12:02:14.115Z,349.40
2023-09-22T12:03:14.195Z,325.57
2023-09-22T12:04:14.035Z,320.50
2023-09-22T12:05:14.025Z,309.94
2023-09-22T12:06:13.985Z,291.82
2023-09-22T12:07:14.014Z,270.04
2023-09-22T12:08:13.997Z,252.26
2023-09-22T12:09:14.088Z,239.94
2023-09-22T12:10:13.938Z,242.59
2023-09-22T12:11:13.922Z,246.22
2023-09-22T12:12:13.932Z,247.14
2023-09-22T12:13:13.920Z,245.12
2023-09-22T12:14:14.109Z,236.16
2023-09-22T12:15:13.860Z,237.52
2023-09-22T12:16:13.937Z,231.18
2023-09-22T12:17:13.922Z,219.04
2023-09-22T12:18:13.866Z,217.16
2023-09-22T12:19:13.836Z,236.33
2023-09-22T12:20:13.830Z,247.70
2023-09-22T12:21:13.828Z,236.67
2023-09-22T12:22:13.838Z,232.98
2023-09-22T12:23:13.799Z,227.67
2023-09-22T12:24:13.787Z,223.04
2023-09-22T12:25:13.897Z,217.59
2023-09-22T12:26:13.783Z,213.36
2023-09-22T12:27:13.739Z,197.61
2023-09-22T12:28:13.796Z,187.28
2023-09-22T12:29:13.740Z,176.32
2023-09-22T12:30:13.702Z,162.94
2023-09-22T12:31:13.842Z,151.58